createdAt,value
2022-08-08T00:02:30.931Z,42.85
2022-08-08T00:08:09.343Z,42.37
2022-08-08T00:14:15.861Z,42.45
2022-08-08T00:19:51.337Z,42.58
2022-08-08T00:25:39.065Z,42.70
2022-08-08T00:32:20.178Z,42.65
2022-08-08T00:37:47.256Z,42.70
2022-08-08T00:43:45.922Z,42.93
2022-08-08T00:49:58.831Z,42.56
2022-08-08T00:55:54.363Z,42.85
2022-08-08T01:01:37.621Z,42.92
2022-08-08T01:07:55.854Z,42.56
2022-08-08T01:13:58.036Z,42.79
2022-08-08T01:20:03.468Z,43.36
2022-08-08T01:26:05.985Z,43.14
2022-08-08T01:32:16.269Z,43.80
2022-08-08T01:38:33.491Z,43.09
2022-08-08T01:44:26.819Z,43.04
2022-08-08T01:50:20.836Z,43.39
2022-08-08T01:56:29.540Z,43.23
2022-08-08T02:02:39.889Z,43.31
2022-08-08T02:08:41.335Z,43.44
2022-08-08T02:14:27.702Z,43.33
2022-08-08T02:21:01.379Z,43.19
2022-08-08T02:26:16.537Z,43.16
2022-08-08T02:32:27.240Z,43.29
2022-08-08T02:38:11.013Z,43.20
2022-08-08T02:44:38.104Z,43.56
2022-08-08T02:50:39.975Z,43.56
2022-08-08T02:56:33.755Z,43.12
2022-08-08T03:02:20.226Z,43.36
2022-08-08T03:08:19.370Z,43.56
2022-08-08T03:16:02.469Z,43.61
2022-08-08T03:20:25.808Z,43.67
2022-08-08T03:25:58.189Z,44.30
2022-08-08T03:32:06.616Z,43.61
2022-08-08T03:37:59.350Z,43.78
2022-08-08T03:43:38.289Z,43.85
2022-08-08T03:49:58.078Z,44.25
2022-08-08T03:55:20.049Z,44.39
2022-08-08T04:01:23.571Z,43.70
2022-08-08T04:07:00.962Z,43.84
2022-08-08T04:12:37.403Z,44.12
2022-08-08T04:18:09.343Z,44.84
2022-08-08T04:24:11.504Z,44.55
2022-08-08T04:29:44.769Z,44.29
2022-08-08T04:35:39.527Z,44.72
2022-08-08T04:41:17.941Z,44.72
2022-08-08T04:46:53.513Z,45.12
2022-08-08T04:52:25.495Z,44.24
2022-08-08T04:58:11.105Z,44.49
2022-08-08T05:04:11.008Z,48.26
2022-08-08T05:09:41.363Z,48.63
2022-08-08T05:15:13.715Z,48.94
2022-08-08T05:20:50.495Z,49.34
2022-08-08T05:26:23.836Z,49.92
2022-08-08T05:32:03.785Z,50.24
2022-08-08T05:37:52.745Z,51.30
2022-08-08T05:44:04.205Z,52.91
2022-08-08T05:49:38.138Z,54.93
2022-08-08T05:55:10.933Z,55.89
2022-08-08T06:00:57.107Z,56.37
2022-08-08T06:06:32.625Z,56.69
2022-08-08T06:12:07.230Z,56.68
2022-08-08T06:18:18.234Z,56.17
2022-08-08T06:24:01.956Z,56.30
2022-08-08T06:29:59.528Z,53.36
2022-08-08T06:36:06.670Z,53.21
2022-08-08T06:41:23.526Z,51.59
2022-08-08T06:47:04.234Z,52.64
2022-08-08T06:52:42.963Z,51.22
2022-08-08T06:58:19.619Z,51.55
2022-08-08T07:04:37.510Z,51.74
2022-08-08T07:10:08.242Z,52.14
2022-08-08T07:16:10.600Z,52.34
2022-08-08T07:22:11.998Z,51.18
2022-08-08T07:28:08.282Z,52.25
2022-08-08T07:33:58.830Z,51.58
2022-08-08T07:39:45.679Z,51.61
2022-08-08T07:45:34.711Z,50.35
2022-08-08T07:51:24.397Z,51.19
2022-08-08T07:57:29.301Z,51.60
2022-08-08T08:03:23.451Z,50.13
2022-08-08T08:09:13.607Z,48.81
2022-08-08T08:15:07.099Z,49.15
2022-08-08T08:20:43.526Z,46.06
2022-08-08T08:26:27.284Z,45.82
2022-08-08T08:32:03.543Z,47.31
2022-08-08T08:37:59.202Z,45.35
2022-08-08T08:43:31.974Z,45.35
2022-08-08T08:49:05.770Z,44.88
2022-08-08T08:54:41.373Z,44.26
2022-08-08T09:00:16.977Z,43.60
2022-08-08T09:05:54.163Z,45.21
2022-08-08T09:11:33.105Z,43.79
2022-08-08T09:17:12.833Z,42.72
2022-08-08T09:22:45.888Z,43.35
2022-08-08T09:28:35.789Z,43.61
2022-08-08T09:34:32.359Z,46.37
2022-08-08T09:40:12.012Z,43.11
2022-08-08T09:45:54.923Z,43.61
2022-08-08T09:52:01.752Z,40.86
2022-08-08T09:57:46.309Z,44.41
2022-08-08T10:03:31.822Z,39.24
2022-08-08T10:09:08.355Z,42.21
2022-08-08T10:14:40.493Z,39.88
2022-08-08T10:20:17.111Z,42.25
2022-08-08T10:25:57.044Z,42.69
2022-08-08T10:31:49.882Z,42.85
2022-08-08T10:37:28.259Z,39.46
2022-08-08T10:43:04.070Z,38.36
2022-08-08T10:48:57.251Z,40.02
2022-08-08T10:54:27.617Z,39.43
2022-08-08T10:59:59.722Z,37.98
2022-08-08T11:05:38.397Z,39.35
2022-08-08T11:11:31.566Z,40.41
2022-08-08T11:17:03.984Z,39.23
2022-08-08T11:22:35.638Z,38.65
2022-08-08T11:28:09.008Z,39.10
2022-08-08T11:33:52.585Z,37.96
2022-08-08T11:39:37.119Z,38.24
2022-08-08T11:45:10.163Z,38.37
2022-08-08T11:50:41.609Z,37.77
2022-08-08T11:56:23.625Z,37.40
2022-08-08T12:02:30.470Z,37.19
2022-08-08T12:07:56.805Z,37.09
2022-08-08T12:13:33.338Z,37.06
2022-08-08T12:19:12.382Z,37.04
2022-08-08T12:24:51.548Z,36.98
2022-08-08T12:30:32.068Z,36.78
2022-08-08T12:36:13.953Z,36.83
2022-08-08T12:41:57.771Z,36.64
2022-08-08T12:47:58.950Z,36.76
2022-08-08T12:53:37.661Z,36.79
2022-08-08T12:59:16.425Z,36.80
2022-08-08T13:04:51.831Z,36.51
2022-08-08T13:10:32.756Z,36.64
2022-08-08T13:16:25.599Z,36.65
2022-08-08T13:22:04.619Z,36.55
2022-08-08T13:27:37.137Z,36.56
2022-08-08T13:33:08.694Z,36.77
2022-08-08T13:38:40.161Z,36.71
2022-08-08T13:44:12.160Z,37.17
2022-08-08T13:50:37.383Z,36.93
2022-08-08T13:55:36.654Z,37.16
2022-08-08T14:01:17.723Z,37.21
2022-08-08T14:06:49.092Z,37.40
2022-08-08T14:12:20.336Z,37.53
2022-08-08T14:18:36.745Z,37.67
2022-08-08T14:24:04.586Z,37.50
2022-08-08T14:29:40.278Z,37.83
2022-08-08T14:35:13.288Z,38.08
2022-08-08T14:40:48.267Z,38.20
2022-08-08T14:46:32.479Z,38.23
2022-08-08T14:52:09.034Z,38.45
2022-08-08T14:58:03.594Z,38.49
2022-08-08T15:03:35.287Z,38.87
2022-08-08T15:09:15.980Z,38.94
2022-08-08T15:14:49.665Z,38.87
2022-08-08T15:20:20.915Z,39.09
2022-08-08T15:25:52.000Z,39.30
2022-08-08T15:31:55.477Z,38.93
2022-08-08T15:37:14.235Z,39.10
2022-08-08T15:42:49.687Z,38.92
2022-08-08T15:48:21.365Z,38.88
2022-08-08T15:53:54.328Z,38.83
2022-08-08T16:00:06.700Z,38.79
2022-08-08T16:05:19.407Z,38.66
2022-08-08T16:13:09.542Z,39.10
2022-08-08T16:16:43.063Z,38.71
2022-08-08T16:22:28.717Z,38.70
2022-08-08T16:28:02.417Z,38.53
2022-08-08T16:33:38.793Z,39.03
2022-08-08T16:39:27.829Z,38.97
2022-08-08T16:44:59.537Z,38.96
2022-08-08T16:50:30.785Z,39.17
2022-08-08T16:56:03.151Z,39.23
2022-08-08T17:01:35.631Z,39.15
2022-08-08T17:07:11.285Z,39.24
2022-08-08T17:12:47.033Z,39.33
2022-08-08T17:18:24.987Z,39.46
2022-08-08T17:24:00.483Z,39.52
2022-08-08T17:29:36.457Z,39.81
2022-08-08T17:35:54.131Z,39.70
2022-08-08T17:41:07.835Z,39.82
2022-08-08T17:46:44.039Z,40.04
2022-08-08T17:52:15.313Z,40.22
2022-08-08T17:57:46.518Z,40.15
2022-08-08T18:03:18.751Z,40.52
2022-08-08T18:08:55.363Z,40.50
2022-08-08T18:14:27.635Z,40.65
2022-08-08T18:20:43.587Z,40.69
2022-08-08T18:25:51.204Z,40.75
2022-08-08T18:31:22.912Z,40.87
2022-08-08T18:36:55.809Z,40.75
2022-08-08T18:42:26.923Z,40.77
2022-08-08T18:47:58.056Z,40.64
2022-08-08T18:54:00.799Z,40.78
2022-08-08T18:59:22.921Z,40.59
2022-08-08T19:04:54.547Z,40.73
2022-08-08T19:10:25.916Z,40.13
2022-08-08T19:15:57.166Z,40.37
2022-08-08T19:21:33.551Z,39.80
2022-08-08T19:27:56.111Z,40.38
2022-08-08T19:33:10.710Z,40.61
2022-08-08T19:38:43.148Z,40.81
2022-08-08T19:44:26.673Z,40.71
2022-08-08T19:50:06.603Z,40.39
2022-08-08T19:55:39.990Z,40.27
2022-08-08T20:01:17.518Z,40.37
2022-08-08T20:06:51.065Z,40.70
2022-08-08T20:12:32.321Z,40.71
2022-08-08T20:18:15.779Z,40.54
2022-08-08T20:23:52.285Z,40.69
2022-08-08T20:29:24.404Z,40.53
2022-08-08T20:35:15.413Z,40.86
2022-08-08T20:40:53.860Z,41.34
2022-08-08T20:46:25.324Z,40.73
2022-08-08T20:51:58.535Z,41.01
2022-08-08T20:57:29.927Z,41.16
2022-08-08T21:03:01.301Z,41.74
2022-08-08T21:08:36.043Z,41.86
2022-08-08T21:14:30.377Z,41.63
2022-08-08T21:20:06.355Z,41.38
2022-08-08T21:25:37.622Z,41.68
2022-08-08T21:31:21.917Z,41.81
2022-08-08T21:36:55.274Z,41.91
2022-08-08T21:42:29.897Z,41.83
2022-08-08T21:48:10.936Z,42.24
2022-08-08T21:54:33.971Z,42.15
2022-08-08T22:00:01.243Z,42.24
2022-08-08T22:05:44.327Z,42.09
2022-08-08T22:11:51.301Z,42.58
2022-08-08T22:17:07.210Z,42.67
2022-08-08T22:22:39.196Z,42.90
2022-08-08T22:29:04.032Z,42.75
2022-08-08T22:34:13.948Z,42.60
2022-08-08T22:40:00.397Z,42.71
2022-08-08T22:45:33.402Z,43.31
2022-08-08T22:51:06.966Z,43.02
2022-08-08T22:56:37.918Z,43.21
2022-08-08T23:02:12.730Z,42.92
2022-08-08T23:07:50.877Z,43.63
2022-08-08T23:13:22.977Z,43.60
2022-08-08T23:18:59.916Z,43.38
2022-08-08T23:24:36.280Z,43.90
2022-08-08T23:30:09.373Z,43.36
2022-08-08T23:35:59.081Z,43.66
2022-08-08T23:41:32.348Z,43.97
2022-08-08T23:49:00.920Z,43.90
2022-08-08T23:53:07.928Z,43.72
2022-08-08T23:58:45.772Z,43.80
